Nearby METAR Reports

 

YAMB - Amberley, Australia
Distance from station: NW 41km
Updated: 03/08/2021 04:30
Overcast
Overcast
 Wind from calm
Wind: Calm
Temperature: 16°C
Dew Point: 15°C
Humidity: 94%
Barometer: 1016 hPa
Clouds: Overcast
Visibility: 10 km
Cloud details: Overcast 1067 m
Overcast 3658 m
2021/08/02 18:30 YAMB 021830Z AUTO 00000KT 9999 // OVC035 OVC120 16/15 Q1016
YBBN - Brisbane Intl Ar, Australia
Distance from station: N 55km
Updated: 03/08/2021 04:30
Overcast
Overcast
 Wind from calm
Wind: Calm
Temperature: 16°C
Dew Point: 15°C
Humidity: 94%
Barometer: 1016 hPa
Clouds: Overcast
Visibility: 10 km
Cloud details: Mostly Cloudy 610 m
Overcast 762 m
2021/08/02 18:30 YBBN 021830Z 00000KT 9999 BKN020 OVC025 16/15 Q1016
 
YBCG - Coolangatta Aws, Australia
Distance from station: SE 57km
Updated: 03/08/2021 04:30
Overcast
Overcast
 Wind from NNW
Wind: NNW 2 km/h
Temperature: 18°C
Dew Point: 17°C
Humidity: 94%
Barometer: 1016 hPa
Clouds: Overcast
Visibility: 10 km
Cloud details: Partly Cloudy 518 m
Mostly Cloudy 732 m
Overcast 1311 m
2021/08/02 18:30 YBCG 021830Z AUTO 33001KT 9999 // SCT017 BKN024 OVC043 18/17 Q1016
YLIS - Lismore Arpt, Australia
Distance from station: SSE 110km
Updated: 03/08/2021 04:30
Overcast
Overcast
 Wind from ESE
Wind: ESE 7 km/h
Temperature: 16°C
Dew Point: 15°C
Humidity: 94%
Barometer: 1015 hPa
Clouds: Overcast
Visibility: 8 km
Cloud details: Mostly Cloudy 396 m
Overcast 3658 m
2021/08/02 18:30 YLIS 021830Z AUTO 12004KT 8000 // BKN013 OVC120 16/15 Q1015
 
YCAS - Casino Airport, Australia
Distance from station: S 113km
Updated: 03/08/2021 04:00

 Wind from calm
Wind: Calm
Temperature: 16°C
Dew Point: 16°C
Humidity: 100%
Barometer: 1015 hPa
2021/08/02 18:00 YCAS 021800Z AUTO 00000KT //// // ////// 16/16 Q1015
YBNA - Ballina Byron G., Australia
Distance from station: SSE 119km
Updated: 03/08/2021 04:05
Partly Cloudy
Partly Cloudy
 Wind from NNW
Wind: NNW 6 km/h
Temperature: 18°C
Dew Point: 17°C
Humidity: 94%
Barometer: 1016 hPa
Clouds: Partly Cloudy
Visibility: 8 km
Cloud details: Partly Cloudy 396 m
Partly Cloudy 518 m
Partly Cloudy 884 m
2021/08/02 18:05 YBNA 021805Z AUTO 33003KT 8000 // SCT013 SCT017 SCT029 18/17 Q1016
 
YBOK - Oakey (army/Civ), Australia
Distance from station: WNW 139km
Updated: 03/08/2021 04:00
Overcast
Overcast
 Wind from NE
Wind: NE 19 km/h
Temperature: 16°C
Dew Point: 16°C
Humidity: 100%
Barometer: 1015 hPa
Clouds: Overcast
Visibility: 10 km
Cloud details: Mostly Cloudy 3200 m
Overcast 3810 m
2021/08/02 18:00 YBOK 021800Z AUTO 04010KT 9999 // BKN105 OVC125 16/16 Q1015